This is the latest recevied weather packets stored in our database for station/object VE2JOS. If no packets are shown the sender has not sent any weather packets the latest 10 day(s).
| Time | Temp. | Humidity | Pressure | Rain* | Wind** | Luminosity | Snow |
|---|---|---|---|---|---|---|---|
| 1777995322 | 16.67° C | 86% | - | 0.51 mm | - | - | - |
| 1777994722 | 16.67° C | 87% | - | 0.51 mm | - | - | - |
| 1777988722 | 18.33° C | 70% | - | 0 mm | - | - | - |
| 1777985742 | 18.33° C | 68% | - | 0 mm | - | - | - |
| 1777982722 | 16.67° C | 65% | - | 0 mm | - | - | - |
| 1777982122 | 16.11° C | 65% | - | 0 mm | - | - | - |
| 1777981522 | 15.56° C | 67% | - | 0 mm | - | - | - |
| 1777977922 | 8.33° C | 99% | - | 0 mm | - | - | - |
| 1777976722 | 7.78° C | 99% | - | 0 mm | - | - | - |
| 1777970122 | 7.22° C | 99% | - | 0 mm | - | - | - |
| 1777965322 | 8.33° C | 99% | - | 0 mm | - | - | - |
| 1777955721 | 10° C | 96% | - | 0 mm | - | - | - |
| 1777955122 | 10° C | 96% | - | 0 mm | - | - | - |
| 1777954521 | 10° C | 96% | - | 0 mm | - | - | - |
| 1777951521 | 10.56° C | 94% | - | 0 mm | - | - | - |
| 1777950942 | 10.56° C | 92% | - | 0 mm | - | - | - |
| 1777950321 | 10.56° C | 91% | - | 0 mm | - | - | - |
| 1777946121 | 12.78° C | 84% | - | 0 mm | - | - | - |
| 1777945542 | 12.78° C | 83% | - | 0 mm | - | - | - |
| 1777944942 | 12.78° C | 82% | - | 0 mm | - | - | - |
| 1777943722 | 13.33° C | 80% | - | 0 mm | - | - | - |
| 1777937121 | 15° C | 72% | - | 0 mm | - | - | - |
| 1777936542 | 15° C | 70% | - | 0 mm | - | - | - |
| 1777934721 | 15.56° C | 68% | - | 0 mm | - | - | - |
| 1777934121 | 16.11° C | 67% | - | 0 mm | - | - | - |
* Rain latest hour (hover to see other rain measurements)
** Current wind speed in m/s (hover to see current wind gust speed)